createdAt,value
2023-01-20T00:00:04.247Z,65.90
2023-01-20T00:02:32.057Z,65.74
2023-01-20T00:05:07.749Z,65.23
2023-01-20T00:07:54.455Z,64.34
2023-01-20T00:10:23.562Z,63.41
2023-01-20T00:12:50.725Z,63.12
2023-01-20T00:15:20.058Z,62.46
2023-01-20T00:17:48.775Z,61.86
2023-01-20T00:20:18.860Z,61.56
2023-01-20T00:22:47.178Z,60.96
2023-01-20T00:25:32.834Z,60.57
2023-01-20T00:28:00.472Z,60.00
2023-01-20T00:30:38.028Z,59.75
2023-01-20T00:33:06.372Z,58.76
2023-01-20T00:35:37.382Z,57.48
2023-01-20T00:38:05.610Z,58.76
2023-01-20T00:40:34.278Z,59.75
2023-01-20T00:43:01.758Z,62.93
2023-01-20T00:45:31.421Z,65.88
2023-01-20T00:48:08.882Z,66.60
2023-01-20T00:50:37.098Z,65.71
2023-01-20T00:53:04.310Z,64.27
2023-01-20T00:55:32.204Z,62.65
2023-01-20T00:58:00.087Z,61.52
2023-01-20T01:00:27.540Z,60.78
2023-01-20T01:02:55.499Z,60.29
2023-01-20T01:05:23.747Z,59.24
2023-01-20T01:07:51.530Z,57.43
2023-01-20T01:10:24.908Z,58.31
2023-01-20T01:12:52.603Z,59.79
2023-01-20T01:15:19.715Z,60.81
2023-01-20T01:17:47.033Z,64.56
2023-01-20T01:20:14.939Z,66.37
2023-01-20T01:22:41.986Z,65.75
2023-01-20T01:25:09.966Z,64.83
2023-01-20T01:27:37.327Z,63.82
2023-01-20T01:30:05.801Z,62.85
2023-01-20T01:32:33.978Z,62.27
2023-01-20T01:35:02.145Z,61.81
2023-01-20T01:37:29.835Z,61.02
2023-01-20T01:39:57.361Z,60.28
2023-01-20T01:42:27.216Z,59.61
2023-01-20T01:45:27.364Z,58.00
2023-01-20T01:48:03.742Z,57.63
2023-01-20T01:50:53.031Z,59.57
2023-01-20T01:53:23.097Z,60.48
2023-01-20T01:55:58.489Z,62.29
2023-01-20T01:58:36.002Z,66.09
2023-01-20T02:04:08.572Z,65.36
2023-01-20T02:06:40.970Z,63.43
2023-01-20T02:09:09.459Z,62.08
2023-01-20T02:11:50.479Z,60.69
2023-01-20T02:14:23.652Z,59.82
2023-01-20T02:17:25.278Z,60.98
2023-01-20T02:20:25.538Z,61.01
2023-01-20T02:23:18.460Z,60.28
2023-01-20T02:26:03.317Z,59.70
2023-01-20T02:28:58.752Z,58.43
2023-01-20T02:32:08.921Z,57.90
2023-01-20T02:34:44.836Z,58.61
2023-01-20T02:37:27.978Z,60.37
2023-01-20T02:40:01.114Z,61.43
2023-01-20T02:42:38.485Z,65.65
2023-01-20T02:45:17.898Z,66.51
2023-01-20T02:48:18.811Z,66.87
2023-01-20T02:51:12.212Z,65.69
2023-01-20T02:53:57.362Z,62.87
2023-01-20T02:56:30.184Z,60.03
2023-01-20T02:59:02.717Z,60.49
2023-01-20T03:01:44.610Z,61.41
2023-01-20T03:04:18.768Z,62.09
2023-01-20T03:06:54.042Z,62.68
2023-01-20T03:09:42.083Z,62.36
2023-01-20T03:12:25.020Z,61.86
2023-01-20T03:14:55.529Z,60.90
2023-01-20T03:17:24.650Z,60.19
2023-01-20T03:19:52.174Z,59.58
2023-01-20T03:22:19.389Z,57.81
2023-01-20T03:24:49.843Z,56.54
2023-01-20T03:27:17.388Z,58.86
2023-01-20T03:29:45.020Z,60.01
2023-01-20T03:32:13.200Z,61.31
2023-01-20T03:34:44.453Z,66.21
2023-01-20T03:37:13.533Z,67.41
2023-01-20T03:39:40.757Z,65.34
2023-01-20T03:42:20.110Z,63.51
2023-01-20T03:45:24.680Z,61.79
2023-01-20T03:48:00.895Z,60.31
2023-01-20T03:50:30.937Z,59.85
2023-01-20T03:53:38.537Z,59.66
2023-01-20T03:56:26.400Z,57.59
2023-01-20T03:58:57.968Z,57.56
2023-01-20T04:01:31.325Z,59.33
2023-01-20T04:04:00.291Z,61.09
2023-01-20T04:06:35.618Z,64.45
2023-01-20T04:09:11.179Z,65.72
2023-01-20T04:11:39.246Z,65.01
2023-01-20T04:14:10.049Z,64.88
2023-01-20T04:16:40.293Z,65.50
2023-01-20T04:19:08.467Z,64.80
2023-01-20T04:22:04.298Z,63.90
2023-01-20T04:25:01.423Z,63.28
2023-01-20T04:27:30.465Z,63.06
2023-01-20T04:29:57.594Z,61.94
2023-01-20T04:32:24.635Z,61.61
2023-01-20T04:34:53.137Z,61.38
2023-01-20T04:37:20.239Z,61.08
2023-01-20T04:39:48.137Z,60.75
2023-01-20T04:42:15.221Z,60.43
2023-01-20T04:44:42.621Z,60.25
2023-01-20T04:47:09.647Z,60.17
2023-01-20T04:49:37.430Z,60.33
2023-01-20T04:52:04.795Z,60.38
2023-01-20T04:54:32.022Z,60.37
2023-01-20T04:56:59.195Z,60.13
2023-01-20T04:59:26.175Z,60.14
2023-01-20T05:01:53.740Z,59.94
2023-01-20T05:04:21.694Z,60.00
2023-01-20T05:06:48.708Z,60.11
2023-01-20T05:09:17.625Z,60.12
2023-01-20T05:11:45.228Z,60.10
2023-01-20T05:14:13.072Z,60.26
2023-01-20T05:16:40.461Z,60.33
2023-01-20T05:19:07.984Z,60.34
2023-01-20T05:21:35.195Z,60.29
2023-01-20T05:24:02.910Z,60.23
2023-01-20T05:26:30.397Z,60.15
2023-01-20T05:28:57.654Z,60.30
2023-01-20T05:31:25.984Z,60.07
2023-01-20T05:33:53.071Z,60.17
2023-01-20T05:36:20.534Z,60.34
2023-01-20T05:38:47.686Z,60.41
2023-01-20T05:41:15.322Z,60.31
2023-01-20T05:43:42.546Z,60.42
2023-01-20T05:46:12.402Z,60.62
2023-01-20T05:48:39.660Z,60.61
2023-01-20T05:51:07.148Z,60.77
2023-01-20T05:53:34.404Z,60.71
2023-01-20T05:56:03.281Z,60.78
2023-01-20T05:58:32.014Z,60.67
2023-01-20T06:01:10.470Z,60.65
2023-01-20T06:03:38.262Z,60.33
2023-01-20T06:06:08.686Z,60.15
2023-01-20T06:08:36.788Z,60.22
2023-01-20T06:11:04.141Z,60.12
2023-01-20T06:13:31.308Z,60.11
2023-01-20T06:15:58.579Z,60.06
2023-01-20T06:18:25.542Z,60.01
2023-01-20T06:20:56.779Z,59.73
2023-01-20T06:23:23.963Z,59.69
2023-01-20T06:26:08.630Z,59.74
2023-01-20T06:28:36.413Z,59.86
2023-01-20T06:31:06.635Z,59.84
2023-01-20T06:33:34.396Z,59.73
2023-01-20T06:36:02.982Z,59.76
2023-01-20T06:38:32.417Z,59.77
2023-01-20T06:41:06.964Z,59.74
2023-01-20T06:43:36.518Z,58.72
2023-01-20T06:46:06.425Z,58.31
2023-01-20T06:48:37.650Z,59.59
2023-01-20T06:51:16.682Z,60.82
2023-01-20T06:53:44.860Z,61.74
2023-01-20T06:56:17.240Z,65.85
2023-01-20T06:58:45.286Z,67.07
2023-01-20T07:01:16.353Z,65.24
2023-01-20T07:03:45.485Z,64.40
2023-01-20T07:06:34.724Z,63.97
2023-01-20T07:09:03.272Z,63.56
2023-01-20T07:11:31.735Z,63.20
2023-01-20T07:13:59.651Z,62.95
2023-01-20T07:16:27.073Z,62.77
2023-01-20T07:18:55.346Z,62.89
2023-01-20T07:21:26.033Z,62.66
2023-01-20T07:23:53.940Z,62.36
2023-01-20T07:26:23.367Z,62.13
2023-01-20T07:28:50.637Z,61.99
2023-01-20T07:31:25.072Z,61.92
2023-01-20T07:33:52.769Z,61.77
2023-01-20T07:36:21.940Z,61.67
2023-01-20T07:38:50.851Z,61.55
2023-01-20T07:41:20.220Z,61.44
2023-01-20T07:43:50.217Z,61.53
2023-01-20T07:46:17.828Z,61.77
2023-01-20T07:48:45.818Z,61.86
2023-01-20T07:51:14.953Z,61.94
2023-01-20T07:53:47.887Z,61.78
2023-01-20T07:56:19.604Z,61.55
2023-01-20T07:58:51.013Z,61.33
2023-01-20T08:01:24.380Z,61.65
2023-01-20T08:03:53.625Z,62.19
2023-01-20T08:06:23.821Z,61.69
2023-01-20T08:08:52.754Z,61.24
2023-01-20T08:11:25.670Z,61.09
2023-01-20T08:13:54.299Z,60.82
2023-01-20T08:16:21.907Z,60.28
2023-01-20T08:18:49.919Z,59.86
2023-01-20T08:21:25.575Z,59.46
2023-01-20T08:23:55.928Z,57.55
2023-01-20T08:26:25.327Z,57.82
2023-01-20T08:28:53.332Z,59.26
2023-01-20T08:31:24.263Z,62.01
2023-01-20T08:34:02.725Z,64.11
2023-01-20T08:36:36.555Z,64.36
2023-01-20T08:39:08.365Z,63.25
2023-01-20T08:41:39.298Z,62.95
2023-01-20T08:44:08.462Z,62.67
2023-01-20T08:46:41.517Z,62.78
2023-01-20T08:49:15.277Z,62.35
2023-01-20T08:51:45.442Z,61.82
2023-01-20T08:54:12.767Z,61.34
2023-01-20T08:56:41.568Z,61.48
2023-01-20T08:59:09.179Z,61.31
2023-01-20T09:01:38.319Z,60.65
2023-01-20T09:04:07.786Z,60.87
2023-01-20T09:06:45.779Z,60.91
2023-01-20T09:09:14.957Z,61.01
2023-01-20T09:11:57.528Z,60.77
2023-01-20T09:14:26.408Z,60.69
2023-01-20T09:16:53.934Z,60.44
2023-01-20T09:19:20.962Z,60.15
2023-01-20T09:21:48.538Z,59.58
2023-01-20T09:24:15.967Z,57.66
2023-01-20T09:26:43.206Z,58.43
2023-01-20T09:29:22.668Z,59.86
2023-01-20T09:32:04.760Z,61.05
2023-01-20T09:34:40.271Z,64.44
2023-01-20T09:37:26.212Z,66.43
2023-01-20T09:40:13.372Z,66.24
2023-01-20T09:43:25.044Z,65.24
2023-01-20T09:46:17.611Z,63.66
2023-01-20T09:49:40.076Z,62.15
2023-01-20T09:52:44.686Z,60.81
2023-01-20T09:55:26.822Z,59.79
2023-01-20T09:58:36.122Z,58.62
2023-01-20T10:01:50.441Z,57.24
2023-01-20T10:04:54.466Z,58.74
2023-01-20T10:07:51.705Z,60.44
2023-01-20T10:10:57.523Z,64.05
2023-01-20T10:14:17.709Z,66.08
2023-01-20T10:17:19.118Z,65.11
2023-01-20T10:20:06.692Z,63.40
2023-01-20T10:23:22.644Z,62.14
2023-01-20T10:26:11.196Z,60.68
2023-01-20T10:28:43.937Z,60.18
2023-01-20T10:31:21.687Z,57.85
2023-01-20T10:33:50.406Z,57.13
2023-01-20T10:37:00.960Z,57.87
2023-01-20T10:39:51.148Z,58.69
2023-01-20T10:43:08.009Z,60.48
2023-01-20T10:46:14.459Z,65.52
2023-01-20T10:49:04.732Z,65.80
2023-01-20T10:52:05.105Z,64.29
2023-01-20T10:55:14.908Z,63.16
2023-01-20T10:57:43.410Z,61.81
2023-01-20T11:00:31.893Z,61.07
2023-01-20T11:03:07.110Z,60.00
2023-01-20T11:05:39.048Z,59.27
2023-01-20T11:08:27.797Z,56.98
2023-01-20T11:11:00.510Z,57.13
2023-01-20T11:13:28.353Z,59.29
2023-01-20T11:16:01.775Z,61.09
2023-01-20T11:18:32.569Z,63.77
2023-01-20T11:21:15.393Z,65.58
2023-01-20T11:23:50.053Z,64.93
2023-01-20T11:26:28.366Z,63.34
2023-01-20T11:29:12.428Z,62.09
2023-01-20T11:31:39.764Z,61.64
2023-01-20T11:34:22.338Z,60.62
2023-01-20T11:36:51.306Z,59.94
2023-01-20T11:40:19.638Z,59.58
2023-01-20T11:44:10.417Z,56.55
2023-01-20T11:51:21.634Z,59.73
2023-01-20T11:59:18.065Z,67.29
2023-01-20T12:03:07.967Z,66.65
2023-01-20T12:07:10.423Z,64.83
2023-01-20T12:11:00.959Z,64.00
2023-01-20T12:15:07.470Z,63.44
2023-01-20T12:19:02.519Z,63.13
2023-01-20T12:22:51.951Z,62.71
2023-01-20T12:26:43.247Z,62.25
2023-01-20T12:54:59.663Z,61.34
2023-01-20T12:58:57.954Z,61.09
2023-01-20T13:02:31.833Z,60.83
2023-01-20T13:06:14.748Z,60.72
2023-01-20T13:10:05.755Z,60.64
2023-01-20T13:13:57.221Z,61.11
2023-01-20T13:17:29.425Z,60.88
2023-01-20T13:21:18.941Z,60.93
2023-01-20T13:25:03.973Z,60.97
2023-01-20T13:28:36.549Z,60.63
2023-01-20T13:31:39.158Z,60.38
2023-01-20T13:34:26.415Z,60.16
2023-01-20T13:37:13.860Z,59.99
2023-01-20T13:40:09.701Z,59.98
2023-01-20T13:43:39.023Z,60.11
2023-01-20T13:50:47.829Z,60.39
2023-01-20T13:54:35.469Z,60.43
2023-01-20T13:58:23.341Z,60.55
2023-01-20T14:02:10.882Z,60.24
2023-01-20T14:05:39.011Z,60.15
2023-01-20T14:09:08.500Z,60.20
2023-01-20T14:12:04.047Z,60.36
2023-01-20T14:19:07.315Z,60.59
2023-01-20T14:22:34.375Z,60.75
2023-01-20T14:26:02.560Z,61.21
2023-01-20T14:29:49.878Z,61.02
2023-01-20T14:32:51.839Z,61.46
2023-01-20T14:36:26.339Z,61.40
2023-01-20T14:40:14.561Z,61.63
2023-01-20T14:43:29.034Z,61.94
2023-01-20T14:46:43.524Z,61.78
2023-01-20T14:50:14.855Z,61.71
2023-01-20T14:54:02.469Z,61.54
2023-01-20T14:57:59.986Z,61.66
2023-01-20T15:01:50.597Z,61.59
2023-01-20T15:05:39.566Z,61.71
2023-01-20T15:09:29.203Z,61.76
2023-01-20T15:13:15.193Z,62.35
2023-01-20T15:17:06.901Z,61.95
2023-01-20T15:21:16.697Z,61.92
2023-01-20T15:25:00.009Z,62.10
2023-01-20T15:28:48.193Z,61.93
2023-01-20T15:32:35.758Z,62.26
2023-01-20T15:36:23.497Z,62.30
2023-01-20T15:40:14.972Z,62.24
2023-01-20T15:44:06.461Z,62.69
2023-01-20T15:47:47.666Z,62.67
2023-01-20T15:50:44.799Z,62.77
2023-01-20T15:54:14.241Z,62.86
2023-01-20T16:01:12.688Z,63.09
2023-01-20T16:04:39.976Z,63.14
2023-01-20T16:08:08.980Z,63.11
2023-01-20T16:11:21.901Z,63.35
2023-01-20T16:14:49.664Z,63.23
2023-01-20T16:17:24.300Z,63.09
2023-01-20T16:20:16.015Z,63.26
2023-01-20T16:23:43.297Z,63.10
2023-01-20T16:27:20.764Z,63.05
2023-01-20T16:29:50.786Z,62.82
2023-01-20T16:33:18.413Z,62.81
2023-01-20T16:36:49.075Z,62.88
2023-01-20T16:40:06.035Z,62.80
2023-01-20T16:43:16.733Z,62.80
2023-01-20T16:46:43.751Z,62.80
2023-01-20T16:50:14.493Z,62.90
2023-01-20T16:53:41.598Z,62.95
2023-01-20T16:57:28.821Z,62.76
2023-01-20T17:01:06.319Z,62.76
2023-01-20T17:04:55.258Z,62.83
2023-01-20T17:08:22.935Z,63.26
2023-01-20T17:12:06.594Z,63.35
2023-01-20T17:15:55.080Z,62.99
2023-01-20T17:19:42.359Z,62.94
2023-01-20T17:22:58.878Z,62.97
2023-01-20T17:26:26.456Z,63.19
2023-01-20T17:30:13.699Z,63.26
2023-01-20T17:33:42.930Z,63.22
2023-01-20T17:37:34.535Z,63.22
2023-01-20T17:41:03.883Z,63.32
2023-01-20T17:44:54.904Z,63.29
2023-01-20T17:48:22.260Z,63.42
2023-01-20T17:52:09.428Z,63.78
2023-01-20T17:56:10.949Z,63.93
2023-01-20T17:59:43.729Z,64.10
2023-01-20T18:03:30.967Z,63.81
2023-01-20T18:07:16.681Z,63.59
2023-01-20T18:10:07.596Z,63.78
2023-01-20T18:13:16.374Z,63.54
2023-01-20T18:16:45.644Z,63.48
2023-01-20T18:20:13.741Z,63.24
2023-01-20T18:23:41.885Z,63.31
2023-01-20T18:26:12.644Z,63.35
2023-01-20T18:28:42.155Z,62.95
2023-01-20T18:31:18.224Z,62.93
2023-01-20T18:33:49.080Z,62.93
2023-01-20T18:36:24.402Z,63.38
2023-01-20T18:38:54.171Z,63.09
2023-01-20T18:41:25.764Z,63.05
2023-01-20T18:43:53.547Z,62.99
2023-01-20T18:46:21.563Z,63.04
2023-01-20T18:48:58.245Z,62.96
2023-01-20T18:51:31.230Z,62.84
2023-01-20T18:54:06.483Z,62.68
2023-01-20T18:56:37.848Z,62.39
2023-01-20T18:59:08.301Z,62.76
2023-01-20T19:01:57.084Z,62.86
2023-01-20T19:04:25.021Z,62.74
2023-01-20T19:06:54.513Z,62.39
2023-01-20T19:09:23.378Z,62.40
2023-01-20T19:11:51.712Z,62.20
2023-01-20T19:14:48.662Z,62.06
2023-01-20T19:18:16.617Z,62.07
2023-01-20T19:21:28.051Z,62.01
2023-01-20T19:31:49.671Z,61.81
2023-01-20T19:34:52.662Z,61.74
2023-01-20T19:37:21.087Z,61.66
2023-01-20T19:39:50.230Z,61.40
2023-01-20T19:42:18.471Z,61.21
2023-01-20T19:44:48.488Z,61.08
2023-01-20T19:47:16.823Z,61.01
2023-01-20T19:49:45.253Z,61.37
2023-01-20T19:52:49.024Z,61.31
2023-01-20T19:56:00.381Z,60.85
2023-01-20T19:58:50.104Z,60.88
2023-01-20T20:02:10.558Z,60.83
2023-01-20T20:05:11.286Z,60.76
2023-01-20T20:07:53.244Z,61.10
2023-01-20T20:10:37.009Z,60.41
2023-01-20T20:13:25.705Z,60.27
2023-01-20T20:16:35.781Z,60.46
2023-01-20T20:19:45.743Z,60.34
2023-01-20T20:22:40.758Z,60.26
2023-01-20T20:26:08.376Z,60.26
2023-01-20T20:29:53.697Z,60.17
2023-01-20T20:33:30.775Z,60.34
2023-01-20T20:37:01.600Z,60.33
2023-01-20T20:40:35.689Z,60.72
2023-01-20T20:44:23.372Z,60.82
2023-01-20T20:47:54.499Z,60.49
2023-01-20T20:51:22.500Z,60.57
2023-01-20T20:54:33.988Z,60.60
2023-01-20T20:58:04.131Z,60.82
2023-01-20T21:01:15.397Z,60.74
2023-01-20T21:04:47.214Z,60.95
2023-01-20T21:08:38.716Z,61.44
2023-01-20T21:12:28.644Z,61.61
2023-01-20T21:16:16.119Z,61.68
2023-01-20T21:20:05.789Z,61.67
2023-01-20T21:23:34.117Z,61.40
2023-01-20T21:27:26.015Z,61.15
2023-01-20T21:31:14.331Z,60.95
2023-01-20T21:35:02.336Z,60.86
2023-01-20T21:38:50.208Z,61.33
2023-01-20T21:42:37.791Z,61.08
2023-01-20T21:46:26.320Z,61.23
2023-01-20T21:50:12.331Z,61.54
2023-01-20T21:53:59.772Z,61.23
2023-01-20T21:57:57.690Z,61.29
2023-01-20T22:01:48.360Z,61.71
2023-01-20T22:05:35.925Z,61.93
2023-01-20T22:09:22.731Z,61.97
2023-01-20T22:12:11.819Z,62.01
2023-01-20T22:15:11.365Z,61.83
2023-01-20T22:18:18.988Z,61.83
2023-01-20T22:21:14.385Z,62.00
2023-01-20T22:24:30.242Z,61.64
2023-01-20T22:27:35.027Z,61.71
2023-01-20T22:31:22.311Z,61.39
2023-01-20T22:34:37.844Z,61.23
2023-01-20T22:37:36.057Z,61.37
2023-01-20T22:41:02.948Z,61.49
2023-01-20T22:44:14.201Z,61.36
2023-01-20T22:46:50.551Z,61.45
2023-01-20T22:50:02.878Z,61.68
2023-01-20T22:52:57.232Z,61.80
2023-01-20T22:56:01.128Z,61.23
2023-01-20T22:59:10.428Z,61.12
2023-01-20T23:02:42.024Z,60.76
2023-01-20T23:06:12.918Z,60.98
2023-01-20T23:10:09.392Z,61.11
2023-01-20T23:13:59.132Z,61.00
2023-01-20T23:17:46.912Z,60.64
2023-01-20T23:25:16.928Z,60.65
2023-01-20T23:28:24.395Z,60.54
2023-01-20T23:34:05.440Z,60.50
2023-01-20T23:39:29.680Z,60.40
2023-01-20T23:42:28.407Z,60.27
2023-01-20T23:47:45.338Z,60.24
2023-01-20T23:51:12.352Z,60.17
2023-01-20T23:54:32.690Z,60.07
2023-01-20T23:57:42.443Z,60.04
